Lake Geneva, Wisconsin
Current Conditions -  °F | °C
As of 2:15 PM on Monday 24 Nov 2014 (Local Time) from KBUU Reporting Station
Light Snow Light Snow  
Wind Chill: 14°   Ceiling: 500
Heat Index: 28°   Visibility: 0.5mi
Dew Point: 27°   Wind: 24mph
Humidity: 94%   Direction: 250°WSW
Pressure: 29.35"   Gusts: 31mph
Location:  42.59°N, 88.44°W
Report Text: KBUU 242015Z AUTO 25021G27KT 1/2SM -SN VV005 M02/M03 A2935 RMK AO2 T10211030
Loading
Personal Weather Stations






























Interactive Weather Map New forecast layout! Learn more

10-Day Weather Forecast

Advertisements
Track Severe Weather on mobile